createdAt,value
2023-02-12T00:04:49.619Z,6
2023-02-12T00:10:40.233Z,5.9
2023-02-12T00:16:33.402Z,5.9
2023-02-12T00:22:27.653Z,5.9
2023-02-12T00:28:32.672Z,5.9
2023-02-12T00:34:32.497Z,5.9
2023-02-12T00:40:33.213Z,6
2023-02-12T00:46:23.962Z,6.1
2023-02-12T00:52:16.318Z,5.9
2023-02-12T00:58:17.253Z,6
2023-02-12T01:04:14.425Z,6.2
2023-02-12T01:10:08.472Z,6
2023-02-12T01:15:59.250Z,6.2
2023-02-12T01:21:49.461Z,6.1
2023-02-12T01:27:39.528Z,6.1
2023-02-12T01:33:33.550Z,6.1
2023-02-12T01:39:28.281Z,5.9
2023-02-12T01:45:21.471Z,6.2
2023-02-12T01:51:13.030Z,6.3
2023-02-12T01:57:09.428Z,6
2023-02-12T02:03:00.138Z,6
2023-02-12T02:08:55.634Z,6.1
2023-02-12T02:14:47.886Z,6.2
2023-02-12T02:20:37.133Z,6.2
2023-02-12T02:26:30.379Z,6.1
2023-02-12T02:32:24.431Z,6.2
2023-02-12T02:38:14.332Z,6.3
2023-02-12T02:44:05.449Z,6.2
2023-02-12T02:49:59.367Z,6.1
2023-02-12T02:55:51.945Z,6.2
2023-02-12T03:01:44.283Z,6.2
2023-02-12T03:07:38.337Z,6.1
2023-02-12T03:19:41.048Z,6.2
2023-02-12T03:25:37.226Z,6.2
2023-02-12T03:31:27.198Z,6.1
2023-02-12T03:37:17.992Z,6.1
2023-02-12T03:43:26.464Z,6.2
2023-02-12T03:49:17.569Z,6.1
2023-02-12T03:55:11.169Z,6.3
2023-02-12T04:01:02.509Z,6.2
2023-02-12T04:07:01.081Z,5.8
2023-02-12T04:12:51.195Z,6.1
2023-02-12T04:18:44.513Z,6.2
2023-02-12T04:24:36.691Z,6.1
2023-02-12T04:30:28.243Z,6
2023-02-12T04:36:29.313Z,6.1
2023-02-12T04:42:23.856Z,6.1
2023-02-12T04:48:16.228Z,6.2
2023-02-12T04:54:07.832Z,6.2
2023-02-12T05:00:00.483Z,6.2
2023-02-12T05:05:50.974Z,6.3
2023-02-12T05:11:43.285Z,6.1
2023-02-12T05:17:44.218Z,6.4
2023-02-12T05:24:43.734Z,6.2
2023-02-12T05:44:20.819Z,6.3
2023-02-12T06:25:37.043Z,6.2
2023-02-12T06:45:55.562Z,6.2
2023-02-12T07:13:22.590Z,6.3
2023-02-12T07:27:15.771Z,6.4
2023-02-12T07:40:59.067Z,6.2
2023-02-12T08:15:18.984Z,6.7
2023-02-12T08:21:38.162Z,6.7
2023-02-12T11:08:31.570Z,9
2023-02-12T11:14:47.548Z,8.9
2023-02-12T11:39:55.465Z,9.4
2023-02-12T12:32:00.849Z,9.7
2023-02-12T12:56:02.103Z,9.8
2023-02-12T13:02:06.467Z,9.9
2023-02-12T13:08:16.677Z,10.1
2023-02-12T13:26:16.685Z,10.1
2023-02-12T13:38:20.057Z,10
2023-02-12T13:44:15.541Z,10
2023-02-12T13:57:03.742Z,10
2023-02-12T14:03:43.514Z,10
2023-02-12T14:09:42.812Z,10
2023-02-12T14:15:36.843Z,9.9
2023-02-12T14:21:27.272Z,10.1
2023-02-12T14:27:17.267Z,10
2023-02-12T14:33:09.038Z,10
2023-02-12T14:39:00.831Z,10.1
2023-02-12T14:44:51.687Z,10
2023-02-12T14:50:42.114Z,10
2023-02-12T14:56:34.189Z,10.1
2023-02-12T15:02:24.663Z,10.1
2023-02-12T15:08:16.721Z,10.1
2023-02-12T15:14:09.842Z,10
2023-02-12T15:20:02.709Z,10
2023-02-12T15:25:53.926Z,9.9
2023-02-12T15:31:49.226Z,9.9
2023-02-12T15:37:41.395Z,10
2023-02-12T15:43:31.281Z,10
2023-02-12T15:49:22.314Z,10
2023-02-12T15:55:14.170Z,9.9
2023-02-12T16:01:05.832Z,10
2023-02-12T16:06:56.980Z,10
2023-02-12T16:12:48.970Z,10.1
2023-02-12T16:18:40.112Z,9.9
2023-02-12T16:24:32.757Z,9.9
2023-02-12T16:30:26.036Z,9.9
2023-02-12T16:36:18.272Z,9.9
2023-02-12T16:42:08.832Z,9.7
2023-02-12T16:48:01.698Z,9.9
2023-02-12T16:53:52.447Z,9.8
2023-02-12T16:59:43.684Z,9.5
2023-02-12T17:05:33.454Z,9.4
2023-02-12T17:11:23.632Z,9.5
2023-02-12T17:17:14.152Z,9.5
2023-02-12T17:23:05.983Z,9.6
2023-02-12T17:28:57.317Z,9.5
2023-02-12T17:34:49.301Z,9.3
2023-02-12T17:40:40.765Z,9.3
2023-02-12T17:46:31.574Z,9.3
2023-02-12T17:52:21.630Z,9.3
2023-02-12T17:58:11.946Z,9.4
2023-02-12T18:04:03.198Z,9.3
2023-02-12T18:09:55.190Z,9.3
2023-02-12T18:15:45.392Z,9.3
2023-02-12T18:21:35.752Z,9.3
2023-02-12T18:27:27.010Z,9.3
2023-02-12T18:33:17.594Z,9.3
2023-02-12T18:39:08.122Z,9.3
2023-02-12T18:45:00.012Z,9.3
2023-02-12T18:50:50.981Z,9.2
2023-02-12T18:56:43.501Z,9.3
2023-02-12T19:02:34.160Z,9.4
2023-02-12T19:08:24.689Z,9.3
2023-02-12T19:14:14.983Z,9.3
2023-02-12T19:20:06.910Z,9.2
2023-02-12T19:25:56.806Z,9.3
2023-02-12T19:31:47.490Z,9.3
2023-02-12T19:37:38.128Z,9.2
2023-02-12T19:43:28.897Z,9.2
2023-02-12T19:49:19.223Z,9.3
2023-02-12T19:55:09.677Z,9.1
2023-02-12T20:00:59.574Z,9.1
2023-02-12T20:06:50.262Z,9.1
2023-02-12T20:12:41.118Z,9.1
2023-02-12T20:18:31.246Z,9.2
2023-02-12T20:24:21.899Z,9.1
2023-02-12T20:30:12.198Z,9.2
2023-02-12T20:36:02.109Z,9.1
2023-02-12T20:41:53.475Z,9
2023-02-12T20:47:45.118Z,9
2023-02-12T20:53:35.479Z,9
2023-02-12T20:59:25.611Z,9
2023-02-12T21:05:16.426Z,9
2023-02-12T21:11:06.716Z,8.9
2023-02-12T21:16:57.186Z,8.9
2023-02-12T21:22:48.772Z,8.9
2023-02-12T21:28:39.150Z,8.9
2023-02-12T21:34:30.164Z,9.1
2023-02-12T21:40:24.960Z,9
2023-02-12T21:46:15.838Z,8.9
2023-02-12T21:52:08.259Z,8.9
2023-02-12T21:58:03.907Z,8.9
2023-02-12T22:03:55.387Z,8.9
2023-02-12T22:09:48.250Z,8.9
2023-02-12T22:15:38.854Z,8.9
2023-02-12T22:21:29.051Z,8.8
2023-02-12T22:27:20.011Z,8.9
2023-02-12T22:33:13.572Z,8.9
2023-02-12T22:39:04.502Z,8.8
2023-02-12T22:44:55.916Z,8.8
2023-02-12T22:50:46.797Z,8.9
2023-02-12T22:56:37.862Z,8.8
2023-02-12T23:02:28.797Z,8.9
2023-02-12T23:08:19.228Z,8.8
2023-02-12T23:14:10.925Z,8.9
2023-02-12T23:20:00.066Z,8.9
2023-02-12T23:25:50.538Z,8.9
2023-02-12T23:31:41.430Z,8.9
2023-02-12T23:37:32.069Z,8.9
2023-02-12T23:43:21.672Z,8.9
2023-02-12T23:49:20.884Z,8.9
2023-02-12T23:55:12.816Z,8.9
